createdAt,value
2023-03-26T00:04:49.332Z,7.92
2023-03-26T00:09:47.904Z,7.91
2023-03-26T00:14:47.890Z,7.87
2023-03-26T00:19:48.727Z,7.77
2023-03-26T00:24:50.409Z,7.63
2023-03-26T00:29:47.846Z,7.56
2023-03-26T00:34:51.414Z,7.49
2023-03-26T00:39:48.084Z,7.42
2023-03-26T00:44:50.168Z,7.35
2023-03-26T00:49:48.185Z,7.31
2023-03-26T00:54:51.463Z,7.27
2023-03-26T00:59:48.752Z,7.24
2023-03-26T01:04:54.512Z,7.21
2023-03-26T01:09:49.979Z,7.22
2023-03-26T01:14:52.041Z,7.23
2023-03-26T01:19:52.140Z,7.25
2023-03-26T01:24:52.194Z,7.31
2023-03-26T01:29:53.175Z,7.36
2023-03-26T01:34:58.095Z,7.33
2023-03-26T01:39:52.422Z,7.29
2023-03-26T01:41:25.839Z,7.29
2023-03-26T01:44:54.300Z,7.29
2023-03-26T01:49:48.005Z,7.28
2023-03-26T01:54:49.461Z,7.27
2023-03-26T01:57:28.298Z,7.27
2023-03-26T02:00:00.794Z,7.27
2023-03-26T02:04:53.416Z,7.27
2023-03-26T02:09:52.692Z,7.32
2023-03-26T02:14:48.321Z,7.30
2023-03-26T02:19:47.934Z,7.32
2023-03-26T02:24:47.863Z,7.37
2023-03-26T02:29:49.398Z,7.36
2023-03-26T02:30:56.720Z,7.36
2023-03-26T02:34:50.288Z,7.36
2023-03-26T02:39:47.776Z,7.31
2023-03-26T02:44:47.940Z,7.27
2023-03-26T02:49:47.859Z,7.17
2023-03-26T02:54:47.782Z,7.13
2023-03-26T02:59:49.517Z,7.17
2023-03-26T03:04:47.755Z,7.21
2023-03-26T03:09:50.087Z,7.23
2023-03-26T03:14:47.736Z,7.27
2023-03-26T03:19:47.847Z,7.27
2023-03-26T03:24:47.953Z,7.31
2023-03-26T03:29:47.718Z,7.34
2023-03-26T03:34:49.842Z,7.39
2023-03-26T03:39:48.010Z,7.47
2023-03-26T03:44:49.349Z,7.48
2023-03-26T03:49:48.257Z,7.48
2023-03-26T03:54:48.544Z,7.47
2023-03-26T03:59:48.537Z,7.49
2023-03-26T04:04:49.275Z,7.51
2023-03-26T04:09:47.918Z,7.49
2023-03-26T04:14:48.021Z,7.50
2023-03-26T04:19:49.268Z,7.55
2023-03-26T04:24:48.688Z,7.56
2023-03-26T04:29:49.354Z,7.55
2023-03-26T04:34:47.787Z,7.58
2023-03-26T04:39:49.213Z,7.61
2023-03-26T04:44:49.899Z,7.62
2023-03-26T04:49:47.850Z,7.68
2023-03-26T04:54:48.216Z,7.70
2023-03-26T04:59:47.650Z,7.62
2023-03-26T05:04:48.985Z,7.60
2023-03-26T05:09:47.930Z,7.62
2023-03-26T05:14:47.759Z,7.65
2023-03-26T05:17:41.957Z,7.65
2023-03-26T05:19:47.839Z,7.70
2023-03-26T05:24:48.315Z,7.70
2023-03-26T05:29:47.638Z,7.78
2023-03-26T05:34:47.729Z,7.89
2023-03-26T05:39:52.201Z,7.95
2023-03-26T05:44:47.795Z,7.92
2023-03-26T05:49:47.790Z,7.97
2023-03-26T05:54:48.009Z,8.15
2023-03-26T05:59:47.691Z,8.30
2023-03-26T06:04:47.779Z,8.39
2023-03-26T06:09:47.962Z,8.57
2023-03-26T06:14:47.817Z,8.91
2023-03-26T06:19:47.730Z,8.77
2023-03-26T06:24:48.038Z,8.67
2023-03-26T06:29:48.065Z,8.53
2023-03-26T06:34:47.983Z,8.48
2023-03-26T06:39:47.861Z,8.40
2023-03-26T06:44:47.587Z,8.22
2023-03-26T06:49:47.695Z,8.23
2023-03-26T06:54:47.771Z,8.22
2023-03-26T06:59:47.949Z,8.33
2023-03-26T07:04:47.608Z,8.58
2023-03-26T07:09:47.799Z,8.78
2023-03-26T07:14:47.713Z,9.09
2023-03-26T07:19:48.330Z,10.27
2023-03-26T07:24:48.279Z,10.61
2023-03-26T07:29:51.770Z,12.03
2023-03-26T07:34:54.098Z,12.53
2023-03-26T07:39:56.793Z,12.89
2023-03-26T07:44:53.486Z,11.97
2023-03-26T07:49:48.281Z,11.20
2023-03-26T07:54:48.489Z,10.70
2023-03-26T07:59:52.048Z,10.29
2023-03-26T08:04:59.107Z,9.99
2023-03-26T08:09:59.045Z,9.84
2023-03-26T08:14:56.645Z,10.05
2023-03-26T08:20:01.348Z,10.27
2023-03-26T08:25:06.228Z,10.59
2023-03-26T08:29:54.601Z,10.33
2023-03-26T08:34:47.798Z,9.90
2023-03-26T08:39:47.783Z,9.60
2023-03-26T08:45:07.500Z,9.53
2023-03-26T08:50:07.497Z,9.55
2023-03-26T08:55:07.375Z,9.48
2023-03-26T08:59:57.916Z,9.38
2023-03-26T09:05:07.400Z,9.32
2023-03-26T09:10:08.265Z,9.31
2023-03-26T09:15:07.360Z,10.01
2023-03-26T09:19:58.440Z,9.94
2023-03-26T09:25:07.000Z,11.55
2023-03-26T09:30:07.844Z,12.54
2023-03-26T09:35:07.394Z,12.49
2023-03-26T09:39:59.878Z,12.27
2023-03-26T09:45:09.441Z,11.95
2023-03-26T09:49:52.514Z,11.31
2023-03-26T09:55:07.666Z,10.79
2023-03-26T10:00:01.145Z,10.61
2023-03-26T10:05:03.952Z,10.50
2023-03-26T10:09:55.906Z,11.01
2023-03-26T10:14:57.600Z,11.95
2023-03-26T10:19:59.758Z,11.36
2023-03-26T10:25:04.870Z,10.96
2023-03-26T10:30:03.265Z,11.65
2023-03-26T10:34:55.734Z,13.00
2023-03-26T10:40:09.227Z,15.02
2023-03-26T10:44:59.373Z,15.68
2023-03-26T10:49:58.629Z,14.64
2023-03-26T10:54:54.328Z,13.02
2023-03-26T10:59:47.489Z,11.86
2023-03-26T11:04:54.781Z,11.73
2023-03-26T11:09:57.299Z,12.55
2023-03-26T11:14:55.799Z,12.76
2023-03-26T11:19:57.199Z,13.42
2023-03-26T11:24:59.039Z,12.88
2023-03-26T11:29:55.762Z,12.40
2023-03-26T11:34:57.351Z,11.80
2023-03-26T11:39:51.944Z,11.32
2023-03-26T11:44:52.675Z,11.00
2023-03-26T11:49:51.710Z,10.77
2023-03-26T11:54:47.402Z,11.07
2023-03-26T11:59:56.982Z,11.20
2023-03-26T12:04:54.249Z,11.06
2023-03-26T12:09:49.650Z,10.93
2023-03-26T12:14:47.595Z,10.91
2023-03-26T12:19:47.533Z,10.76
2023-03-26T12:25:00.784Z,11.62
2023-03-26T12:29:50.409Z,11.50
2023-03-26T12:34:47.588Z,11.25
2023-03-26T12:40:09.177Z,12.18
2023-03-26T12:44:58.762Z,12.89
2023-03-26T12:49:50.254Z,13.27
2023-03-26T12:54:56.304Z,13.63
2023-03-26T13:00:07.793Z,14.13
2023-03-26T13:05:06.306Z,13.45
2023-03-26T13:10:03.188Z,12.93
2023-03-26T13:15:02.302Z,12.43
2023-03-26T13:19:56.723Z,12.91
2023-03-26T13:24:53.430Z,13.19
2023-03-26T13:29:56.919Z,13.17
2023-03-26T13:35:03.282Z,13.43
2023-03-26T13:39:56.663Z,13.25
2023-03-26T13:45:04.493Z,13.44
2023-03-26T13:49:51.446Z,13.79
2023-03-26T13:54:51.657Z,13.68
2023-03-26T13:59:51.595Z,13.38
2023-03-26T14:04:53.160Z,13.13
2023-03-26T14:09:53.565Z,13.38
2023-03-26T14:14:51.550Z,13.46
2023-03-26T14:20:07.319Z,13.01
2023-03-26T14:24:57.834Z,12.62
2023-03-26T14:30:02.809Z,12.45
2023-03-26T14:35:04.024Z,12.28
2023-03-26T14:40:13.771Z,11.94
2023-03-26T14:45:04.882Z,11.72
2023-03-26T14:50:07.339Z,11.75
2023-03-26T14:54:51.773Z,11.86
2023-03-26T15:00:13.488Z,12.11
2023-03-26T15:05:07.165Z,12.10
2023-03-26T15:10:07.466Z,12.07
2023-03-26T15:15:06.088Z,11.94
2023-03-26T15:20:08.048Z,11.75
2023-03-26T15:25:07.307Z,11.45
2023-03-26T15:30:07.654Z,11.24
2023-03-26T15:35:08.731Z,11.40
2023-03-26T15:40:07.074Z,11.26
2023-03-26T15:44:54.379Z,11.19
2023-03-26T15:49:54.052Z,10.94
2023-03-26T15:54:56.531Z,10.80
2023-03-26T15:59:56.402Z,10.68
2023-03-26T16:04:52.963Z,10.50
2023-03-26T16:09:59.107Z,10.37
2023-03-26T16:15:10.669Z,10.29
2023-03-26T16:19:50.935Z,10.28
2023-03-26T16:25:27.202Z,10.23
2023-03-26T16:30:08.484Z,10.22
2023-03-26T16:34:50.264Z,10.21
2023-03-26T16:39:48.242Z,10.09
2023-03-26T16:44:56.355Z,9.95
2023-03-26T16:50:08.865Z,9.81
2023-03-26T16:54:53.173Z,9.65
2023-03-26T17:00:07.553Z,9.59
2023-03-26T17:04:51.422Z,9.48
2023-03-26T17:09:58.241Z,9.37
2023-03-26T17:14:55.416Z,9.27
2023-03-26T17:19:53.590Z,9.20
2023-03-26T17:24:52.984Z,9.12
2023-03-26T17:29:59.756Z,9.08
2023-03-26T17:34:57.243Z,9.07
2023-03-26T17:40:11.159Z,9.01
2023-03-26T17:40:40.070Z,9.01
2023-03-26T17:44:49.395Z,8.99
2023-03-26T17:49:52.249Z,8.98
2023-03-26T17:54:51.489Z,8.96
2023-03-26T17:59:50.142Z,8.95
2023-03-26T18:04:51.942Z,8.93
2023-03-26T18:09:58.250Z,8.94
2023-03-26T18:14:59.610Z,8.90
2023-03-26T18:19:50.529Z,8.91
2023-03-26T18:24:48.123Z,8.93
2023-03-26T18:30:02.002Z,8.97
2023-03-26T18:34:51.504Z,8.96
2023-03-26T18:39:58.449Z,8.92
2023-03-26T18:44:49.410Z,8.90
2023-03-26T18:49:53.041Z,8.83
2023-03-26T18:54:49.991Z,8.83
2023-03-26T18:59:49.552Z,8.77
2023-03-26T19:04:49.912Z,8.73
2023-03-26T19:09:48.600Z,8.70
2023-03-26T19:14:53.964Z,8.66
2023-03-26T19:19:48.780Z,8.64
2023-03-26T19:24:52.062Z,8.63
2023-03-26T19:29:48.045Z,8.65
2023-03-26T19:34:47.503Z,8.70
2023-03-26T19:39:50.242Z,8.68
2023-03-26T19:44:47.249Z,8.63
2023-03-26T19:49:52.229Z,8.59
2023-03-26T19:54:59.254Z,8.51
2023-03-26T19:59:50.933Z,8.46
2023-03-26T20:04:47.619Z,8.37
2023-03-26T20:09:48.423Z,8.28
2023-03-26T20:14:47.821Z,8.19
2023-03-26T20:19:47.222Z,8.13
2023-03-26T20:24:47.493Z,8.04
2023-03-26T20:29:47.277Z,7.95
2023-03-26T20:34:48.623Z,7.89
2023-03-26T20:39:47.280Z,7.79
2023-03-26T20:44:47.158Z,7.74
2023-03-26T20:49:47.034Z,7.69
2023-03-26T20:54:48.301Z,7.68
2023-03-26T20:59:47.026Z,7.63
2023-03-26T21:04:47.435Z,7.56
2023-03-26T21:09:47.764Z,7.54
2023-03-26T21:14:47.496Z,7.50
2023-03-26T21:19:49.204Z,7.51
2023-03-26T21:25:00.186Z,7.48
2023-03-26T21:29:47.321Z,7.48
2023-03-26T21:34:57.507Z,7.41
2023-03-26T21:39:47.655Z,7.37
2023-03-26T21:44:47.671Z,7.35
2023-03-26T21:49:47.218Z,7.29
2023-03-26T21:54:47.878Z,7.21
2023-03-26T21:59:57.678Z,7.19
2023-03-26T22:04:51.732Z,7.14
2023-03-26T22:09:47.745Z,7.09
2023-03-26T22:14:46.973Z,7.05
2023-03-26T22:19:47.021Z,6.96
2023-03-26T22:24:47.266Z,6.93
2023-03-26T22:29:47.248Z,6.89
2023-03-26T22:34:47.185Z,6.87
2023-03-26T22:39:47.237Z,6.86
2023-03-26T22:44:47.275Z,6.87
2023-03-26T22:49:46.950Z,6.93
2023-03-26T22:54:47.225Z,6.97
2023-03-26T22:59:47.054Z,7.05
2023-03-26T23:04:47.948Z,7.08
2023-03-26T23:09:47.125Z,7.05
2023-03-26T23:14:51.808Z,7.05
2023-03-26T23:19:47.022Z,7.01
2023-03-26T23:24:47.413Z,6.99
2023-03-26T23:29:47.203Z,7.07
2023-03-26T23:34:52.201Z,7.04
2023-03-26T23:39:47.465Z,7.05
2023-03-26T23:44:46.872Z,7.08
2023-03-26T23:49:46.907Z,7.12
2023-03-26T23:54:47.086Z,7.13
2023-03-26T23:59:48.358Z,7.07
